Podhale (bahama Islands) — C6TX9 — position and weather

sailwx.info

Track history (hours):
 
Tides and Currents Weather Stations Pressure Air Temp Water Temp Dewpoint Dewpoint Depression Visibility Wind Speed Wind Dir Waves Ship Positions

Podhale (bahama Islands)

Last reported at 2014-Aug-24 15:17 UTC. Time now 2014-Aug-27 21:20 UTC.
Position N 54°19' E 004°53'.

Length 190 m; beam 24 m.

Type: Cargo ship. MMSI: 311831000.

Date/timePositionNaut miles runAvg speedWind from/ knotsBaromVisibWave heightAir tempDewpointWater temp
2014-Aug-24 15:17N 54°19' E 004°53'810.9
2014-Aug-24 14:33N 54°11' E 004°55'1110.7
2014-Aug-24 13:33N 54°00' E 004°55'1110.7
2014-Aug-24 12:33N 53°50' E 004°53'12611.4
2014-Aug-24 01:29N 51°56' E 003°23'1213.0
2014-Aug-24 00:32N 51°45' E 003°14'9 9.3
2014-Aug-23 23:33N 51°37' E 003°22'1110.8
2014-Aug-23 22:33N 51°28' E 003°31'7 6.6
2014-Aug-23 21:33N 51°26' E 003°41'8 8.2
2014-Aug-23 20:34N 51°20' E 003°49'2 2.2
2014-Aug-23 19:33N 51°18' E 003°50'13 0.8
2014-Aug-23 03:33N 51°05' E 003°45'0 0.0
2014-Aug-23 02:33N 51°05' E 003°45'0 0.0
2014-Aug-23 01:33N 51°05' E 003°45'0 0.0
2014-Aug-23 00:33N 51°05' E 003°45'0 0.0
2014-Aug-22 23:33N 51°05' E 003°45'0 0.0
2014-Aug-22 22:30N 51°05' E 003°45'0 0.0
2014-Aug-22 21:33N 51°05' E 003°45'0 0.0
2014-Aug-22 20:33N 51°05' E 003°45'0 0.0
2014-Aug-22 19:33N 51°05' E 003°45'0 0.0
2014-Aug-22 18:30N 51°05' E 003°45'0 0.0
2014-Aug-22 17:33N 51°05' E 003°45'0 0.0
2014-Aug-22 16:30N 51°05' E 003°45'0 0.0
2014-Aug-22 15:33N 51°05' E 003°45'0 0.0
2014-Aug-22 14:30N 51°05' E 003°45'0 0.0
2014-Aug-22 13:33N 51°05' E 003°45'0 0.0
2014-Aug-22 12:33N 51°05' E 003°45'0 0.0
2014-Aug-22 11:30N 51°05' E 003°45'0 0.0
2014-Aug-22 10:33N 51°05' E 003°45'0 0.0
2014-Aug-22 09:33N 51°05' E 003°45'0 0.0
2014-Aug-22 08:32N 51°05' E 003°45'0 0.0
2014-Aug-22 07:33N 51°05' E 003°45'0 0.0
2014-Aug-22 06:33N 51°05' E 003°45'0 0.0
2014-Aug-22 05:33N 51°05' E 003°45'0 0.0
2014-Aug-22 04:30N 51°05' E 003°45'0 0.0
2014-Aug-22 03:30N 51°05' E 003°45'0 0.1
2014-Aug-22 02:34N 51°05' E 003°45'3 3.4
2014-Aug-22 01:34N 51°09' E 003°47'5 5.4
2014-Aug-22 00:34N 51°14' E 003°49'5 5.3
2014-Aug-21 23:34N 51°19' E 003°49'2 1.7
2014-Aug-21 22:34N 51°21' E 003°48'9 8.6
2014-Aug-21 21:33N 51°26' E 003°38'1211.7
2014-Aug-21 20:33N 51°24' E 003°19'1211.9
2014-Aug-21 19:33N 51°26' E 003°00'1111.3
2014-Aug-21 18:33N 51°35' E 003°10'9 9.2
2014-Aug-21 17:32N 51°45' E 003°13'7 5.1
2014-Aug-21 16:10N 51°48' E 003°23'0 0.0
2014-Aug-21 08:28N 51°48' E 003°23'0 0.1
2014-Aug-21 07:31N 51°48' E 003°23'0 0.1
2014-Aug-21 06:31N 51°48' E 003°23'0 0.0
2014-Aug-21 05:31N 51°48' E 003°22'0 0.0
2014-Aug-21 04:16N 51°48' E 003°23'0 0.1
2014-Aug-21 03:28N 51°48' E 003°23'0 0.2
2014-Aug-21 02:31N 51°48' E 003°23'0 0.1
2014-Aug-21 01:31N 51°48' E 003°23'0 0.0
2014-Aug-21 00:31N 51°48' E 003°23'0 0.0
2014-Aug-20 23:31N 51°48' E 003°23'0 0.1
2014-Aug-20 22:28N 51°48' E 003°23'0 0.0
2014-Aug-20 07:31N 51°48' E 003°23'0 0.1
2014-Aug-20 06:31N 51°48' E 003°23'0 0.1
2014-Aug-20 05:28N 51°48' E 003°23'0 0.0
2014-Aug-20 04:28N 51°48' E 003°23'0 0.0
2014-Aug-20 03:28N 51°48' E 003°23'0 0.0
2014-Aug-20 02:31N 51°48' E 003°23'0 0.0
2014-Aug-20 01:28N 51°48' E 003°23'0 0.1
2014-Aug-20 00:04N 51°48' E 003°23'0 0.1
2014-Aug-19 22:07N 51°48' E 003°23'0 0.0
2014-Aug-19 20:31N 51°48' E 003°23'0 0.1
2014-Aug-19 19:28N 51°48' E 003°23'0 0.0
2014-Aug-19 13:13N 51°48' E 003°23'0 0.1
2014-Aug-19 12:22N 51°48' E 003°23'0 0.1
2014-Aug-19 11:10N 51°48' E 003°23'0 0.0
2014-Aug-19 09:10N 51°48' E 003°23'0 0.0
2014-Aug-19 05:16N 51°48' E 003°23'0 0.2
2014-Aug-19 04:31N 51°48' E 003°23'0 0.1
2014-Aug-19 03:31N 51°48' E 003°23'0 0.0
2014-Aug-19 02:31N 51°48' E 003°23'0 0.0
2014-Aug-19 01:31N 51°48' E 003°23'0 0.0
2014-Aug-19 00:31N 51°48' E 003°23'0 0.0
2014-Aug-18 23:28N 51°48' E 003°23'0 0.2
2014-Aug-18 22:22N 51°48' E 003°23'0 0.0
2014-Aug-18 21:31N 51°48' E 003°23'28 4.7
2014-Aug-18 15:33N 52°17' E 003°25'1212.5
2014-Aug-18 14:33N 52°29' E 003°28'1711.5
2014-Aug-18 13:04N 52°44' E 003°41'611.0
2014-Aug-18 12:34N 52°48' E 003°47'1010.4
2014-Aug-18 11:34N 52°56' E 003°58'10 9.5
2014-Aug-18 10:34N 53°03' E 004°09'10 9.0
2014-Aug-18 09:26N 53°10' E 004°22'11 9.0
2014-Aug-18 08:16N 53°19' E 004°29'710.0
2014-Aug-18 07:33N 53°26' E 004°33'1010.3
2014-Aug-18 06:34N 53°36' E 004°38'10 9.8
2014-Aug-18 05:31N 53°45' E 004°45'9 9.2
2014-Aug-18 04:34N 53°53' E 004°50'238 9.4
2014-Aug-17 03:15N 57°17' E 008°30'1110.1
2014-Aug-17 02:09N 57°23' E 008°47'3110.7
2014-Aug-16 23:15N 57°40' E 009°36'811.0
2014-Aug-16 22:30N 57°43' E 009°50'1010.8
2014-Aug-16 21:34N 57°47' E 010°07'1010.0
2014-Aug-16 20:33N 57°49' E 010°26'9 9.2
2014-Aug-16 19:33N 57°49' E 010°43'10 9.6
2014-Aug-16 18:34N 57°42' E 010°57'1010.0
2014-Aug-16 17:34N 57°36' E 011°10'1110.5
2014-Aug-16 16:33N 57°29' E 011°26'1110.9
2014-Aug-16 15:33N 57°19' E 011°32'1111.1
2014-Aug-16 14:34N 57°08' E 011°39'1110.9
2014-Aug-16 13:34N 56°58' E 011°46'1111.0
2014-Aug-16 12:33N 56°47' E 011°52'1010.5
2014-Aug-16 11:34N 56°38' E 011°46'130 8.1
2014-Aug-15 19:34N 54°28' E 011°40'1010.3
2014-Aug-15 18:33N 54°26' E 011°58'10 9.6
2014-Aug-15 17:33N 54°30' E 012°13'1110.7
2014-Aug-15 16:34N 54°39' E 012°24'1111.2
2014-Aug-15 15:33N 54°45' E 012°40'1111.2
2014-Aug-15 14:33N 54°47' E 012°59'1111.3
2014-Aug-15 13:34N 54°47' E 013°18'1110.9
2014-Aug-15 12:33N 54°46' E 013°37'1111.2
2014-Aug-15 11:33N 54°42' E 013°56'1211.5
2014-Aug-15 10:33N 54°39' E 014°15'10311.5
2014-Aug-15 01:33N 54°54' E 017°12'1211.4
2014-Aug-15 00:32N 54°56' E 017°32'1111.4
2014-Aug-14 23:34N 54°57' E 017°51'1111.1
2014-Aug-14 22:34N 54°57' E 018°11'1111.2
2014-Aug-14 21:34N 54°57' E 018°30'1110.7
2014-Aug-14 20:34N 54°52' E 018°46'1110.7
2014-Aug-14 19:34N 54°44' E 018°59'1211.6
2014-Aug-14 18:34N 54°34' E 018°51'1010.1
2014-Aug-14 17:34N 54°32' E 018°34'1 0.9
2014-Aug-14 16:33N 54°32' E 018°32'0 0.0
2014-Aug-14 15:34N 54°32' E 018°32'  
Track history (hours):
 
Tides and Currents Weather Stations Pressure Air Temp Water Temp Dewpoint Dewpoint Depression Visibility Wind Speed Wind Dir Waves Ship Positions

Podhale (bahama Islands)

Last reported at 2014-Aug-24 15:17 UTC. Time now 2014-Aug-27 21:20 UTC.
Position N 54°19' E 004°53'.

Length 190 m; beam 24 m.

Type: Cargo ship. MMSI: 311831000.

Date/timePositionNaut miles runAvg speedWind from/ knotsBaromVisibWave heightAir tempDewpointWater temp
2014-Aug-24 15:17N 54°19' E 004°53'810.9
2014-Aug-24 14:33N 54°11' E 004°55'1110.7
2014-Aug-24 13:33N 54°00' E 004°55'1110.7
2014-Aug-24 12:33N 53°50' E 004°53'12611.4
2014-Aug-24 01:29N 51°56' E 003°23'1213.0
2014-Aug-24 00:32N 51°45' E 003°14'9 9.3
2014-Aug-23 23:33N 51°37' E 003°22'1110.8
2014-Aug-23 22:33N 51°28' E 003°31'7 6.6
2014-Aug-23 21:33N 51°26' E 003°41'8 8.2
2014-Aug-23 20:34N 51°20' E 003°49'2 2.2
2014-Aug-23 19:33N 51°18' E 003°50'13 0.8
2014-Aug-23 03:33N 51°05' E 003°45'0 0.0
2014-Aug-23 02:33N 51°05' E 003°45'0 0.0
2014-Aug-23 01:33N 51°05' E 003°45'0 0.0
2014-Aug-23 00:33N 51°05' E 003°45'0 0.0
2014-Aug-22 23:33N 51°05' E 003°45'0 0.0
2014-Aug-22 22:30N 51°05' E 003°45'0 0.0
2014-Aug-22 21:33N 51°05' E 003°45'0 0.0
2014-Aug-22 20:33N 51°05' E 003°45'0 0.0
2014-Aug-22 19:33N 51°05' E 003°45'0 0.0
2014-Aug-22 18:30N 51°05' E 003°45'0 0.0
2014-Aug-22 17:33N 51°05' E 003°45'0 0.0
2014-Aug-22 16:30N 51°05' E 003°45'0 0.0
2014-Aug-22 15:33N 51°05' E 003°45'0 0.0
2014-Aug-22 14:30N 51°05' E 003°45'0 0.0
2014-Aug-22 13:33N 51°05' E 003°45'0 0.0
2014-Aug-22 12:33N 51°05' E 003°45'0 0.0
2014-Aug-22 11:30N 51°05' E 003°45'0 0.0
2014-Aug-22 10:33N 51°05' E 003°45'0 0.0
2014-Aug-22 09:33N 51°05' E 003°45'0 0.0
2014-Aug-22 08:32N 51°05' E 003°45'0 0.0
2014-Aug-22 07:33N 51°05' E 003°45'0 0.0
2014-Aug-22 06:33N 51°05' E 003°45'0 0.0
2014-Aug-22 05:33N 51°05' E 003°45'0 0.0
2014-Aug-22 04:30N 51°05' E 003°45'0 0.0
2014-Aug-22 03:30N 51°05' E 003°45'0 0.1
2014-Aug-22 02:34N 51°05' E 003°45'3 3.4
2014-Aug-22 01:34N 51°09' E 003°47'5 5.4
2014-Aug-22 00:34N 51°14' E 003°49'5 5.3
2014-Aug-21 23:34N 51°19' E 003°49'2 1.7
2014-Aug-21 22:34N 51°21' E 003°48'9 8.6
2014-Aug-21 21:33N 51°26' E 003°38'1211.7
2014-Aug-21 20:33N 51°24' E 003°19'1211.9
2014-Aug-21 19:33N 51°26' E 003°00'1111.3
2014-Aug-21 18:33N 51°35' E 003°10'9 9.2
2014-Aug-21 17:32N 51°45' E 003°13'7 5.1
2014-Aug-21 16:10N 51°48' E 003°23'0 0.0
2014-Aug-21 08:28N 51°48' E 003°23'0 0.1
2014-Aug-21 07:31N 51°48' E 003°23'0 0.1
2014-Aug-21 06:31N 51°48' E 003°23'0 0.0
2014-Aug-21 05:31N 51°48' E 003°22'0 0.0
2014-Aug-21 04:16N 51°48' E 003°23'0 0.1
2014-Aug-21 03:28N 51°48' E 003°23'0 0.2
2014-Aug-21 02:31N 51°48' E 003°23'0 0.1
2014-Aug-21 01:31N 51°48' E 003°23'0 0.0
2014-Aug-21 00:31N 51°48' E 003°23'0 0.0
2014-Aug-20 23:31N 51°48' E 003°23'0 0.1
2014-Aug-20 22:28N 51°48' E 003°23'0 0.0
2014-Aug-20 07:31N 51°48' E 003°23'0 0.1
2014-Aug-20 06:31N 51°48' E 003°23'0 0.1
2014-Aug-20 05:28N 51°48' E 003°23'0 0.0
2014-Aug-20 04:28N 51°48' E 003°23'0 0.0
2014-Aug-20 03:28N 51°48' E 003°23'0 0.0
2014-Aug-20 02:31N 51°48' E 003°23'0 0.0
2014-Aug-20 01:28N 51°48' E 003°23'0 0.1
2014-Aug-20 00:04N 51°48' E 003°23'0 0.1
2014-Aug-19 22:07N 51°48' E 003°23'0 0.0
2014-Aug-19 20:31N 51°48' E 003°23'0 0.1
2014-Aug-19 19:28N 51°48' E 003°23'0 0.0
2014-Aug-19 13:13N 51°48' E 003°23'0 0.1
2014-Aug-19 12:22N 51°48' E 003°23'0 0.1
2014-Aug-19 11:10N 51°48' E 003°23'0 0.0
2014-Aug-19 09:10N 51°48' E 003°23'0 0.0
2014-Aug-19 05:16N 51°48' E 003°23'0 0.2
2014-Aug-19 04:31N 51°48' E 003°23'0 0.1
2014-Aug-19 03:31N 51°48' E 003°23'0 0.0
2014-Aug-19 02:31N 51°48' E 003°23'0 0.0
2014-Aug-19 01:31N 51°48' E 003°23'0 0.0
2014-Aug-19 00:31N 51°48' E 003°23'0 0.0
2014-Aug-18 23:28N 51°48' E 003°23'0 0.2
2014-Aug-18 22:22N 51°48' E 003°23'0 0.0
2014-Aug-18 21:31N 51°48' E 003°23'28 4.7
2014-Aug-18 15:33N 52°17' E 003°25'1212.5
2014-Aug-18 14:33N 52°29' E 003°28'1711.5
2014-Aug-18 13:04N 52°44' E 003°41'611.0
2014-Aug-18 12:34N 52°48' E 003°47'1010.4
2014-Aug-18 11:34N 52°56' E 003°58'10 9.5
2014-Aug-18 10:34N 53°03' E 004°09'10 9.0
2014-Aug-18 09:26N 53°10' E 004°22'11 9.0
2014-Aug-18 08:16N 53°19' E 004°29'710.0
2014-Aug-18 07:33N 53°26' E 004°33'1010.3
2014-Aug-18 06:34N 53°36' E 004°38'10 9.8
2014-Aug-18 05:31N 53°45' E 004°45'9 9.2
2014-Aug-18 04:34N 53°53' E 004°50'238 9.4
2014-Aug-17 03:15N 57°17' E 008°30'1110.1
2014-Aug-17 02:09N 57°23' E 008°47'3110.7
2014-Aug-16 23:15N 57°40' E 009°36'811.0
2014-Aug-16 22:30N 57°43' E 009°50'1010.8
2014-Aug-16 21:34N 57°47' E 010°07'1010.0
2014-Aug-16 20:33N 57°49' E 010°26'9 9.2
2014-Aug-16 19:33N 57°49' E 010°43'10 9.6
2014-Aug-16 18:34N 57°42' E 010°57'1010.0
2014-Aug-16 17:34N 57°36' E 011°10'1110.5
2014-Aug-16 16:33N 57°29' E 011°26'1110.9
2014-Aug-16 15:33N 57°19' E 011°32'1111.1
2014-Aug-16 14:34N 57°08' E 011°39'1110.9
2014-Aug-16 13:34N 56°58' E 011°46'1111.0
2014-Aug-16 12:33N 56°47' E 011°52'1010.5
2014-Aug-16 11:34N 56°38' E 011°46'130 8.1
2014-Aug-15 19:34N 54°28' E 011°40'1010.3
2014-Aug-15 18:33N 54°26' E 011°58'10 9.6
2014-Aug-15 17:33N 54°30' E 012°13'1110.7
2014-Aug-15 16:34N 54°39' E 012°24'1111.2
2014-Aug-15 15:33N 54°45' E 012°40'1111.2
2014-Aug-15 14:33N 54°47' E 012°59'1111.3
2014-Aug-15 13:34N 54°47' E 013°18'1110.9
2014-Aug-15 12:33N 54°46' E 013°37'1111.2
2014-Aug-15 11:33N 54°42' E 013°56'1211.5
2014-Aug-15 10:33N 54°39' E 014°15'10311.5
2014-Aug-15 01:33N 54°54' E 017°12'1211.4
2014-Aug-15 00:32N 54°56' E 017°32'1111.4
2014-Aug-14 23:34N 54°57' E 017°51'1111.1
2014-Aug-14 22:34N 54°57' E 018°11'1111.2
2014-Aug-14 21:34N 54°57' E 018°30'1110.7
2014-Aug-14 20:34N 54°52' E 018°46'1110.7
2014-Aug-14 19:34N 54°44' E 018°59'1211.6
2014-Aug-14 18:34N 54°34' E 018°51'1010.1
2014-Aug-14 17:34N 54°32' E 018°34'1 0.9
2014-Aug-14 16:33N 54°32' E 018°32'0 0.0
2014-Aug-14 15:34N 54°32' E 018°32'  

Dump ship's entire track history